aviador You're here:

KMQY Decoded Metar

SMYRNA in TN, USA
Report Time2017-07-21 07:56:00
UTC Time2017-07-21 08:42:22
Flight Rules vfr VFR
WindCalm
Visibility9999 m
Phenomena:N/A
Clouds:N/A
CeilingNone
Temp23°C (ISA +9)
Dew Point23°C (100% RH)
QNH1017 hPa
Density Alt1,837 ft
Elevation545 ft
Report Wrong Elevation
Raw Report
METAR KMQY 210756Z AUTO 00000KT 7SM CLR 23/23 A3004 RMK AO2 SLP045
T02330228=

Extra information for KMQY:More info

Metar Taf Metar & Taf Last 4 Metars F.Rules Stats Wind Profile Meteogram Temp Stats Airport Information Weather charts Add Link Nearby VenuesMetar ALERT Operation Metar Decoded Social comments

AIRNAV info for KMQY